sensor_id;sensor_type;location;lat;lon;timestamp;P1;durP1;ratioP1;P2;durP2;ratioP2
19089;SDS011;9677;50.656;13.064;2023-09-30T00:01:32;22.40;;;14.13;;
19089;SDS011;9677;50.656;13.064;2023-09-30T00:04:01;22.47;;;14.20;;
19089;SDS011;9677;50.656;13.064;2023-09-30T00:06:30;19.83;;;13.20;;
19089;SDS011;9677;50.656;13.064;2023-09-30T00:08:59;22.67;;;14.13;;
19089;SDS011;9677;50.656;13.064;2023-09-30T00:11:31;19.73;;;13.47;;
19089;SDS011;9677;50.656;13.064;2023-09-30T00:14:03;21.70;;;14.00;;
19089;SDS011;9677;50.656;13.064;2023-09-30T00:16:32;21.10;;;13.20;;
19089;SDS011;9677;50.656;13.064;2023-09-30T00:19:01;19.97;;;12.80;;
19089;SDS011;9677;50.656;13.064;2023-09-30T00:21:30;20.40;;;14.13;;
19089;SDS011;9677;50.656;13.064;2023-09-30T00:23:59;21.40;;;13.70;;
19089;SDS011;9677;50.656;13.064;2023-09-30T00:26:28;21.70;;;13.70;;
19089;SDS011;9677;50.656;13.064;2023-09-30T00:28:57;18.77;;;13.53;;
19089;SDS011;9677;50.656;13.064;2023-09-30T00:31:28;21.00;;;13.30;;
19089;SDS011;9677;50.656;13.064;2023-09-30T00:33:57;20.20;;;12.90;;
19089;SDS011;9677;50.656;13.064;2023-09-30T00:36:26;19.30;;;13.10;;
19089;SDS011;9677;50.656;13.064;2023-09-30T00:38:55;22.07;;;13.87;;
19089;SDS011;9677;50.656;13.064;2023-09-30T00:41:25;19.70;;;13.10;;
19089;SDS011;9677;50.656;13.064;2023-09-30T00:43:54;20.70;;;13.13;;
19089;SDS011;9677;50.656;13.064;2023-09-30T00:46:25;19.13;;;12.60;;
19089;SDS011;9677;50.656;13.064;2023-09-30T00:48:58;21.60;;;13.50;;
19089;SDS011;9677;50.656;13.064;2023-09-30T00:51:28;21.90;;;14.10;;
19089;SDS011;9677;50.656;13.064;2023-09-30T00:53:58;20.97;;;13.00;;
19089;SDS011;9677;50.656;13.064;2023-09-30T00:56:28;19.83;;;13.00;;
19089;SDS011;9677;50.656;13.064;2023-09-30T00:58:58;16.27;;;11.53;;
19089;SDS011;9677;50.656;13.064;2023-09-30T01:01:28;11.50;;;10.00;;
19089;SDS011;9677;50.656;13.064;2023-09-30T01:03:57;12.00;;;9.90;;
19089;SDS011;9677;50.656;13.064;2023-09-30T01:06:26;10.80;;;9.37;;
19089;SDS011;9677;50.656;13.064;2023-09-30T01:08:55;9.77;;;8.77;;
19089;SDS011;9677;50.656;13.064;2023-09-30T01:11:23;10.17;;;9.03;;
19089;SDS011;9677;50.656;13.064;2023-09-30T01:13:53;9.50;;;8.60;;
19089;SDS011;9677;50.656;13.064;2023-09-30T01:16:22;9.67;;;8.70;;
19089;SDS011;9677;50.656;13.064;2023-09-30T01:18:52;11.07;;;9.27;;
19089;SDS011;9677;50.656;13.064;2023-09-30T01:21:20;9.63;;;8.63;;
19089;SDS011;9677;50.656;13.064;2023-09-30T01:23:51;9.50;;;8.60;;
19089;SDS011;9677;50.656;13.064;2023-09-30T01:26:19;9.63;;;8.70;;
19089;SDS011;9677;50.656;13.064;2023-09-30T01:28:49;11.10;;;8.70;;
19089;SDS011;9677;50.656;13.064;2023-09-30T01:31:17;9.70;;;8.70;;
19089;SDS011;9677;50.656;13.064;2023-09-30T01:33:45;9.30;;;8.40;;
19089;SDS011;9677;50.656;13.064;2023-09-30T01:36:14;9.20;;;8.30;;
19089;SDS011;9677;50.656;13.064;2023-09-30T01:38:44;8.67;;;7.93;;
19089;SDS011;9677;50.656;13.064;2023-09-30T01:41:13;9.00;;;8.20;;
19089;SDS011;9677;50.656;13.064;2023-09-30T01:43:43;9.23;;;8.43;;
19089;SDS011;9677;50.656;13.064;2023-09-30T01:46:11;9.70;;;8.67;;
19089;SDS011;9677;50.656;13.064;2023-09-30T01:48:39;9.33;;;8.43;;
19089;SDS011;9677;50.656;13.064;2023-09-30T01:51:08;9.50;;;8.50;;
19089;SDS011;9677;50.656;13.064;2023-09-30T01:53:36;9.20;;;8.30;;
19089;SDS011;9677;50.656;13.064;2023-09-30T01:56:04;9.40;;;8.40;;
19089;SDS011;9677;50.656;13.064;2023-09-30T01:58:34;9.53;;;8.53;;
19089;SDS011;9677;50.656;13.064;2023-09-30T02:01:02;9.30;;;8.40;;
19089;SDS011;9677;50.656;13.064;2023-09-30T02:03:31;9.27;;;8.37;;
19089;SDS011;9677;50.656;13.064;2023-09-30T02:06:00;9.70;;;8.80;;
19089;SDS011;9677;50.656;13.064;2023-09-30T02:08:28;9.53;;;8.53;;
19089;SDS011;9677;50.656;13.064;2023-09-30T02:10:56;10.97;;;8.43;;
19089;SDS011;9677;50.656;13.064;2023-09-30T02:13:24;9.10;;;8.30;;
19089;SDS011;9677;50.656;13.064;2023-09-30T02:15:55;9.27;;;8.40;;
19089;SDS011;9677;50.656;13.064;2023-09-30T02:18:23;9.43;;;8.40;;
19089;SDS011;9677;50.656;13.064;2023-09-30T02:20:51;9.20;;;8.30;;
19089;SDS011;9677;50.656;13.064;2023-09-30T02:23:20;9.97;;;8.27;;
19089;SDS011;9677;50.656;13.064;2023-09-30T02:25:49;9.60;;;8.70;;
19089;SDS011;9677;50.656;13.064;2023-09-30T02:28:17;9.03;;;8.20;;
19089;SDS011;9677;50.656;13.064;2023-09-30T02:30:45;9.10;;;8.30;;
19089;SDS011;9677;50.656;13.064;2023-09-30T02:33:16;9.17;;;8.27;;
19089;SDS011;9677;50.656;13.064;2023-09-30T02:35:44;9.20;;;8.33;;
19089;SDS011;9677;50.656;13.064;2023-09-30T02:38:13;9.20;;;8.30;;
19089;SDS011;9677;50.656;13.064;2023-09-30T02:40:44;9.23;;;8.43;;
19089;SDS011;9677;50.656;13.064;2023-09-30T02:43:13;9.03;;;8.23;;
19089;SDS011;9677;50.656;13.064;2023-09-30T02:45:41;9.00;;;8.20;;
19089;SDS011;9677;50.656;13.064;2023-09-30T02:48:10;8.83;;;8.03;;
19089;SDS011;9677;50.656;13.064;2023-09-30T02:50:40;9.50;;;8.60;;
19089;SDS011;9677;50.656;13.064;2023-09-30T02:53:11;9.20;;;8.30;;
19089;SDS011;9677;50.656;13.064;2023-09-30T02:55:40;9.20;;;8.40;;
19089;SDS011;9677;50.656;13.064;2023-09-30T02:58:10;9.70;;;8.70;;
19089;SDS011;9677;50.656;13.064;2023-09-30T03:00:38;9.57;;;8.60;;
19089;SDS011;9677;50.656;13.064;2023-09-30T03:03:07;9.13;;;8.33;;
19089;SDS011;9677;50.656;13.064;2023-09-30T03:05:35;9.17;;;8.37;;
19089;SDS011;9677;50.656;13.064;2023-09-30T03:08:05;9.20;;;8.30;;
19089;SDS011;9677;50.656;13.064;2023-09-30T03:10:33;9.20;;;8.40;;
19089;SDS011;9677;50.656;13.064;2023-09-30T03:13:07;9.30;;;8.40;;
19089;SDS011;9677;50.656;13.064;2023-09-30T03:15:36;9.43;;;8.53;;
19089;SDS011;9677;50.656;13.064;2023-09-30T03:18:05;9.83;;;8.80;;
19089;SDS011;9677;50.656;13.064;2023-09-30T03:20:34;10.23;;;8.67;;
19089;SDS011;9677;50.656;13.064;2023-09-30T03:23:06;10.27;;;8.67;;
19089;SDS011;9677;50.656;13.064;2023-09-30T03:25:35;9.53;;;8.63;;
19089;SDS011;9677;50.656;13.064;2023-09-30T03:28:04;9.83;;;8.83;;
19089;SDS011;9677;50.656;13.064;2023-09-30T03:30:32;9.50;;;8.60;;
19089;SDS011;9677;50.656;13.064;2023-09-30T03:33:01;9.60;;;8.60;;
19089;SDS011;9677;50.656;13.064;2023-09-30T03:35:31;10.00;;;9.00;;
19089;SDS011;9677;50.656;13.064;2023-09-30T03:37:59;10.00;;;9.10;;
19089;SDS011;9677;50.656;13.064;2023-09-30T03:40:30;9.60;;;8.70;;
19089;SDS011;9677;50.656;13.064;2023-09-30T03:43:00;9.87;;;8.87;;
19089;SDS011;9677;50.656;13.064;2023-09-30T03:45:29;9.63;;;8.73;;
19089;SDS011;9677;50.656;13.064;2023-09-30T03:47:59;11.70;;;8.97;;
19089;SDS011;9677;50.656;13.064;2023-09-30T03:50:28;10.10;;;8.77;;
19089;SDS011;9677;50.656;13.064;2023-09-30T03:53:00;10.10;;;9.10;;
19089;SDS011;9677;50.656;13.064;2023-09-30T03:55:32;9.90;;;8.90;;
19089;SDS011;9677;50.656;13.064;2023-09-30T03:58:01;10.97;;;8.80;;
19089;SDS011;9677;50.656;13.064;2023-09-30T04:00:30;10.13;;;9.03;;
19089;SDS011;9677;50.656;13.064;2023-09-30T04:02:58;9.93;;;8.93;;
19089;SDS011;9677;50.656;13.064;2023-09-30T04:05:27;9.40;;;8.60;;
19089;SDS011;9677;50.656;13.064;2023-09-30T04:07:58;9.73;;;8.83;;
19089;SDS011;9677;50.656;13.064;2023-09-30T04:10:26;9.40;;;8.60;;
19089;SDS011;9677;50.656;13.064;2023-09-30T04:12:57;10.10;;;8.63;;
19089;SDS011;9677;50.656;13.064;2023-09-30T04:15:26;10.00;;;9.00;;
19089;SDS011;9677;50.656;13.064;2023-09-30T04:17:54;9.73;;;8.83;;
19089;SDS011;9677;50.656;13.064;2023-09-30T04:20:22;9.80;;;8.80;;
19089;SDS011;9677;50.656;13.064;2023-09-30T04:22:53;9.67;;;8.70;;
19089;SDS011;9677;50.656;13.064;2023-09-30T04:25:24;9.73;;;8.83;;
19089;SDS011;9677;50.656;13.064;2023-09-30T04:27:53;9.80;;;8.80;;
19089;SDS011;9677;50.656;13.064;2023-09-30T04:30:22;10.53;;;8.90;;
19089;SDS011;9677;50.656;13.064;2023-09-30T04:32:51;9.33;;;8.43;;
19089;SDS011;9677;50.656;13.064;2023-09-30T04:35:19;9.70;;;8.73;;
19089;SDS011;9677;50.656;13.064;2023-09-30T04:37:48;9.73;;;8.73;;
19089;SDS011;9677;50.656;13.064;2023-09-30T04:40:18;10.10;;;8.60;;
19089;SDS011;9677;50.656;13.064;2023-09-30T04:42:47;9.90;;;8.90;;
19089;SDS011;9677;50.656;13.064;2023-09-30T04:45:16;9.83;;;8.83;;
19089;SDS011;9677;50.656;13.064;2023-09-30T04:47:48;10.20;;;9.10;;
19089;SDS011;9677;50.656;13.064;2023-09-30T04:50:16;10.40;;;9.10;;
19089;SDS011;9677;50.656;13.064;2023-09-30T04:52:48;9.87;;;8.87;;
19089;SDS011;9677;50.656;13.064;2023-09-30T04:55:18;9.70;;;8.80;;
19089;SDS011;9677;50.656;13.064;2023-09-30T04:57:46;10.33;;;9.00;;
19089;SDS011;9677;50.656;13.064;2023-09-30T05:00:16;9.70;;;8.70;;
19089;SDS011;9677;50.656;13.064;2023-09-30T05:02:49;9.90;;;8.90;;
19089;SDS011;9677;50.656;13.064;2023-09-30T05:05:18;11.03;;;9.07;;
19089;SDS011;9677;50.656;13.064;2023-09-30T05:07:47;9.97;;;9.07;;
19089;SDS011;9677;50.656;13.064;2023-09-30T05:10:15;9.97;;;8.97;;
19089;SDS011;9677;50.656;13.064;2023-09-30T05:12:43;9.60;;;8.70;;
19089;SDS011;9677;50.656;13.064;2023-09-30T05:15:14;9.93;;;8.97;;
19089;SDS011;9677;50.656;13.064;2023-09-30T05:17:44;10.00;;;9.00;;
19089;SDS011;9677;50.656;13.064;2023-09-30T05:20:15;9.80;;;8.80;;
19089;SDS011;9677;50.656;13.064;2023-09-30T05:22:44;9.93;;;8.93;;
19089;SDS011;9677;50.656;13.064;2023-09-30T05:25:15;10.97;;;9.60;;
19089;SDS011;9677;50.656;13.064;2023-09-30T05:27:45;10.10;;;8.80;;
19089;SDS011;9677;50.656;13.064;2023-09-30T05:30:15;10.87;;;9.27;;
19089;SDS011;9677;50.656;13.064;2023-09-30T05:32:46;9.63;;;8.73;;
19089;SDS011;9677;50.656;13.064;2023-09-30T05:35:16;10.03;;;9.00;;
19089;SDS011;9677;50.656;13.064;2023-09-30T05:37:44;13.47;;;9.00;;
19089;SDS011;9677;50.656;13.064;2023-09-30T05:40:13;11.53;;;9.33;;
19089;SDS011;9677;50.656;13.064;2023-09-30T05:42:49;9.90;;;8.80;;
19089;SDS011;9677;50.656;13.064;2023-09-30T05:45:19;9.90;;;8.90;;
19089;SDS011;9677;50.656;13.064;2023-09-30T05:47:50;12.00;;;9.17;;
19089;SDS011;9677;50.656;13.064;2023-09-30T05:50:21;9.90;;;8.90;;
19089;SDS011;9677;50.656;13.064;2023-09-30T05:52:53;10.07;;;8.97;;
19089;SDS011;9677;50.656;13.064;2023-09-30T05:55:22;9.90;;;9.00;;
19089;SDS011;9677;50.656;13.064;2023-09-30T05:57:53;14.53;;;8.90;;
19089;SDS011;9677;50.656;13.064;2023-09-30T06:00:22;9.93;;;9.03;;
19089;SDS011;9677;50.656;13.064;2023-09-30T06:02:55;11.23;;;9.10;;
19089;SDS011;9677;50.656;13.064;2023-09-30T06:05:26;10.63;;;9.33;;
19089;SDS011;9677;50.656;13.064;2023-09-30T06:07:57;9.77;;;8.77;;
19089;SDS011;9677;50.656;13.064;2023-09-30T06:10:29;9.93;;;8.90;;
19089;SDS011;9677;50.656;13.064;2023-09-30T06:12:57;10.37;;;9.27;;
19089;SDS011;9677;50.656;13.064;2023-09-30T06:15:26;9.63;;;8.73;;
19089;SDS011;9677;50.656;13.064;2023-09-30T06:17:55;10.10;;;9.10;;
19089;SDS011;9677;50.656;13.064;2023-09-30T06:20:28;10.23;;;9.13;;
19089;SDS011;9677;50.656;13.064;2023-09-30T06:22:57;10.33;;;9.30;;
19089;SDS011;9677;50.656;13.064;2023-09-30T06:25:26;11.30;;;9.40;;
19089;SDS011;9677;50.656;13.064;2023-09-30T06:27:57;10.27;;;9.27;;
19089;SDS011;9677;50.656;13.064;2023-09-30T06:30:25;10.27;;;9.27;;
19089;SDS011;9677;50.656;13.064;2023-09-30T06:32:57;10.77;;;9.40;;
19089;SDS011;9677;50.656;13.064;2023-09-30T06:35:28;10.53;;;9.53;;
19089;SDS011;9677;50.656;13.064;2023-09-30T06:38:01;10.07;;;9.07;;
19089;SDS011;9677;50.656;13.064;2023-09-30T06:40:29;9.93;;;9.03;;
19089;SDS011;9677;50.656;13.064;2023-09-30T06:42:58;11.40;;;9.40;;
19089;SDS011;9677;50.656;13.064;2023-09-30T06:45:27;12.10;;;9.60;;
19089;SDS011;9677;50.656;13.064;2023-09-30T06:47:56;11.30;;;9.33;;
19089;SDS011;9677;50.656;13.064;2023-09-30T06:50:24;10.13;;;9.13;;
19089;SDS011;9677;50.656;13.064;2023-09-30T06:52:54;10.00;;;9.00;;
19089;SDS011;9677;50.656;13.064;2023-09-30T06:55:22;10.20;;;9.20;;
19089;SDS011;9677;50.656;13.064;2023-09-30T06:57:53;10.23;;;9.03;;
19089;SDS011;9677;50.656;13.064;2023-09-30T07:00:21;10.47;;;9.37;;
19089;SDS011;9677;50.656;13.064;2023-09-30T07:02:49;10.27;;;9.27;;
19089;SDS011;9677;50.656;13.064;2023-09-30T07:05:18;9.70;;;8.80;;
19089;SDS011;9677;50.656;13.064;2023-09-30T07:07:47;10.40;;;9.40;;
19089;SDS011;9677;50.656;13.064;2023-09-30T07:10:16;10.27;;;9.30;;
19089;SDS011;9677;50.656;13.064;2023-09-30T07:12:44;10.43;;;9.33;;
19089;SDS011;9677;50.656;13.064;2023-09-30T07:15:13;11.27;;;9.90;;
19089;SDS011;9677;50.656;13.064;2023-09-30T07:17:41;10.10;;;9.10;;
19089;SDS011;9677;50.656;13.064;2023-09-30T07:20:11;9.77;;;8.80;;
19089;SDS011;9677;50.656;13.064;2023-09-30T07:22:39;9.97;;;9.07;;
19089;SDS011;9677;50.656;13.064;2023-09-30T07:25:26;10.20;;;9.20;;
19089;SDS011;9677;50.656;13.064;2023-09-30T07:27:54;12.03;;;9.73;;
19089;SDS011;9677;50.656;13.064;2023-09-30T07:30:23;11.70;;;9.53;;
19089;SDS011;9677;50.656;13.064;2023-09-30T07:32:52;10.00;;;9.00;;
19089;SDS011;9677;50.656;13.064;2023-09-30T07:35:20;10.67;;;9.60;;
19089;SDS011;9677;50.656;13.064;2023-09-30T07:37:48;10.20;;;9.30;;
19089;SDS011;9677;50.656;13.064;2023-09-30T07:40:19;10.27;;;9.27;;
19089;SDS011;9677;50.656;13.064;2023-09-30T07:42:49;10.97;;;8.93;;
19089;SDS011;9677;50.656;13.064;2023-09-30T07:45:18;10.07;;;9.07;;
19089;SDS011;9677;50.656;13.064;2023-09-30T07:47:47;9.97;;;8.87;;
19089;SDS011;9677;50.656;13.064;2023-09-30T07:50:17;10.47;;;9.20;;
19089;SDS011;9677;50.656;13.064;2023-09-30T07:52:45;10.37;;;9.33;;
19089;SDS011;9677;50.656;13.064;2023-09-30T07:55:14;9.93;;;8.93;;
19089;SDS011;9677;50.656;13.064;2023-09-30T07:57:43;10.67;;;9.37;;
19089;SDS011;9677;50.656;13.064;2023-09-30T08:00:14;10.13;;;9.13;;
19089;SDS011;9677;50.656;13.064;2023-09-30T08:02:44;10.20;;;9.20;;
19089;SDS011;9677;50.656;13.064;2023-09-30T08:05:12;10.33;;;9.10;;
19089;SDS011;9677;50.656;13.064;2023-09-30T08:07:41;11.27;;;9.37;;
19089;SDS011;9677;50.656;13.064;2023-09-30T08:10:09;10.40;;;9.30;;
19089;SDS011;9677;50.656;13.064;2023-09-30T08:12:40;11.27;;;9.20;;
19089;SDS011;9677;50.656;13.064;2023-09-30T08:15:09;11.83;;;8.97;;
19089;SDS011;9677;50.656;13.064;2023-09-30T08:17:40;9.77;;;8.87;;
19089;SDS011;9677;50.656;13.064;2023-09-30T08:20:09;9.97;;;8.90;;
19089;SDS011;9677;50.656;13.064;2023-09-30T08:22:38;9.77;;;8.77;;
19089;SDS011;9677;50.656;13.064;2023-09-30T08:25:08;9.93;;;8.93;;
19089;SDS011;9677;50.656;13.064;2023-09-30T08:27:37;10.40;;;9.40;;
19089;SDS011;9677;50.656;13.064;2023-09-30T08:30:07;9.90;;;8.90;;
19089;SDS011;9677;50.656;13.064;2023-09-30T08:32:37;9.97;;;8.80;;
19089;SDS011;9677;50.656;13.064;2023-09-30T08:35:08;10.20;;;8.70;;
19089;SDS011;9677;50.656;13.064;2023-09-30T08:37:37;9.80;;;8.80;;
19089;SDS011;9677;50.656;13.064;2023-09-30T08:40:06;9.77;;;8.77;;
19089;SDS011;9677;50.656;13.064;2023-09-30T08:42:38;10.67;;;9.07;;
19089;SDS011;9677;50.656;13.064;2023-09-30T08:45:08;9.97;;;8.97;;
19089;SDS011;9677;50.656;13.064;2023-09-30T08:47:41;9.83;;;8.93;;
19089;SDS011;9677;50.656;13.064;2023-09-30T08:50:11;9.87;;;8.87;;
19089;SDS011;9677;50.656;13.064;2023-09-30T08:52:40;9.90;;;8.90;;
19089;SDS011;9677;50.656;13.064;2023-09-30T08:55:11;9.73;;;8.73;;
19089;SDS011;9677;50.656;13.064;2023-09-30T08:57:40;10.93;;;9.00;;
19089;SDS011;9677;50.656;13.064;2023-09-30T09:00:10;10.10;;;8.80;;
19089;SDS011;9677;50.656;13.064;2023-09-30T09:02:41;10.23;;;9.07;;
19089;SDS011;9677;50.656;13.064;2023-09-30T09:05:11;9.97;;;8.97;;
19089;SDS011;9677;50.656;13.064;2023-09-30T09:07:42;9.83;;;8.83;;
19089;SDS011;9677;50.656;13.064;2023-09-30T09:10:10;10.53;;;8.90;;
19089;SDS011;9677;50.656;13.064;2023-09-30T09:12:41;9.70;;;8.70;;
19089;SDS011;9677;50.656;13.064;2023-09-30T09:15:21;9.70;;;8.70;;
19089;SDS011;9677;50.656;13.064;2023-09-30T09:17:53;9.63;;;8.63;;
19089;SDS011;9677;50.656;13.064;2023-09-30T09:20:24;9.70;;;8.70;;
19089;SDS011;9677;50.656;13.064;2023-09-30T09:22:54;9.67;;;8.67;;
19089;SDS011;9677;50.656;13.064;2023-09-30T09:25:26;9.93;;;8.93;;
19089;SDS011;9677;50.656;13.064;2023-09-30T09:27:55;9.80;;;8.87;;
19089;SDS011;9677;50.656;13.064;2023-09-30T09:30:24;10.57;;;9.13;;
19089;SDS011;9677;50.656;13.064;2023-09-30T09:32:58;9.43;;;8.53;;
19089;SDS011;9677;50.656;13.064;2023-09-30T09:35:29;16.53;;;8.97;;
19089;SDS011;9677;50.656;13.064;2023-09-30T09:38:00;9.73;;;8.73;;
19089;SDS011;9677;50.656;13.064;2023-09-30T09:40:32;9.17;;;8.27;;
19089;SDS011;9677;50.656;13.064;2023-09-30T09:43:02;9.20;;;8.40;;
19089;SDS011;9677;50.656;13.064;2023-09-30T09:45:33;9.37;;;8.47;;
19089;SDS011;9677;50.656;13.064;2023-09-30T09:48:05;10.07;;;8.70;;
19089;SDS011;9677;50.656;13.064;2023-09-30T09:50:36;10.00;;;8.77;;
19089;SDS011;9677;50.656;13.064;2023-09-30T09:53:05;10.20;;;8.90;;
19089;SDS011;9677;50.656;13.064;2023-09-30T09:55:37;9.90;;;9.00;;
19089;SDS011;9677;50.656;13.064;2023-09-30T09:58:08;10.17;;;9.17;;
19089;SDS011;9677;50.656;13.064;2023-09-30T10:00:38;9.83;;;8.83;;
19089;SDS011;9677;50.656;13.064;2023-09-30T10:03:08;9.63;;;8.73;;
19089;SDS011;9677;50.656;13.064;2023-09-30T10:05:40;9.83;;;8.83;;
19089;SDS011;9677;50.656;13.064;2023-09-30T10:08:11;10.47;;;9.00;;
19089;SDS011;9677;50.656;13.064;2023-09-30T10:10:43;9.60;;;8.70;;
19089;SDS011;9677;50.656;13.064;2023-09-30T10:19:18;10.10;;;8.87;;
19089;SDS011;9677;50.656;13.064;2023-09-30T10:24:52;9.80;;;8.80;;
19089;SDS011;9677;50.656;13.064;2023-09-30T10:27:34;9.80;;;8.80;;
19089;SDS011;9677;50.656;13.064;2023-09-30T10:30:08;9.40;;;8.50;;
19089;SDS011;9677;50.656;13.064;2023-09-30T10:35:43;9.60;;;8.67;;
19089;SDS011;9677;50.656;13.064;2023-09-30T10:41:09;9.50;;;8.60;;
19089;SDS011;9677;50.656;13.064;2023-09-30T10:43:39;11.60;;;8.67;;
19089;SDS011;9677;50.656;13.064;2023-09-30T10:49:14;9.63;;;8.67;;
19089;SDS011;9677;50.656;13.064;2023-09-30T10:51:44;10.40;;;8.83;;
19089;SDS011;9677;50.656;13.064;2023-09-30T10:54:18;9.60;;;8.70;;
19089;SDS011;9677;50.656;13.064;2023-09-30T10:56:51;10.30;;;8.70;;
19089;SDS011;9677;50.656;13.064;2023-09-30T10:59:21;9.63;;;8.63;;
19089;SDS011;9677;50.656;13.064;2023-09-30T11:01:50;9.40;;;8.40;;
19089;SDS011;9677;50.656;13.064;2023-09-30T11:04:20;9.60;;;8.60;;
19089;SDS011;9677;50.656;13.064;2023-09-30T11:06:49;9.70;;;8.73;;
19089;SDS011;9677;50.656;13.064;2023-09-30T11:09:20;9.70;;;8.70;;
19089;SDS011;9677;50.656;13.064;2023-09-30T11:11:54;10.57;;;8.73;;
19089;SDS011;9677;50.656;13.064;2023-09-30T11:14:23;9.30;;;8.40;;
19089;SDS011;9677;50.656;13.064;2023-09-30T11:17:00;9.73;;;8.73;;
19089;SDS011;9677;50.656;13.064;2023-09-30T11:19:34;9.33;;;8.40;;
19089;SDS011;9677;50.656;13.064;2023-09-30T11:22:04;9.40;;;8.50;;
19089;SDS011;9677;50.656;13.064;2023-09-30T11:24:36;10.77;;;8.60;;
19089;SDS011;9677;50.656;13.064;2023-09-30T11:27:04;9.30;;;8.40;;
19089;SDS011;9677;50.656;13.064;2023-09-30T11:29:33;9.20;;;8.23;;
19089;SDS011;9677;50.656;13.064;2023-09-30T11:32:02;9.93;;;8.63;;
19089;SDS011;9677;50.656;13.064;2023-09-30T11:34:31;9.37;;;8.47;;
19089;SDS011;9677;50.656;13.064;2023-09-30T11:37:03;9.70;;;8.70;;
19089;SDS011;9677;50.656;13.064;2023-09-30T11:39:33;9.50;;;8.50;;
19089;SDS011;9677;50.656;13.064;2023-09-30T11:42:02;10.93;;;8.80;;
19089;SDS011;9677;50.656;13.064;2023-09-30T11:44:47;9.40;;;8.40;;
19089;SDS011;9677;50.656;13.064;2023-09-30T11:47:27;9.27;;;8.37;;
19089;SDS011;9677;50.656;13.064;2023-09-30T11:49:57;11.00;;;8.40;;
19089;SDS011;9677;50.656;13.064;2023-09-30T11:52:26;10.03;;;8.70;;
19089;SDS011;9677;50.656;13.064;2023-09-30T11:54:58;11.50;;;8.40;;
19089;SDS011;9677;50.656;13.064;2023-09-30T11:57:36;9.17;;;8.27;;
19089;SDS011;9677;50.656;13.064;2023-09-30T12:00:05;10.17;;;8.63;;
19089;SDS011;9677;50.656;13.064;2023-09-30T12:02:40;9.00;;;8.10;;
19089;SDS011;9677;50.656;13.064;2023-09-30T12:05:08;9.20;;;8.23;;
19089;SDS011;9677;50.656;13.064;2023-09-30T12:07:37;9.37;;;8.43;;
19089;SDS011;9677;50.656;13.064;2023-09-30T12:10:08;9.10;;;8.20;;
19089;SDS011;9677;50.656;13.064;2023-09-30T12:12:38;10.00;;;8.07;;
19089;SDS011;9677;50.656;13.064;2023-09-30T12:15:07;9.00;;;8.20;;
19089;SDS011;9677;50.656;13.064;2023-09-30T12:17:38;9.10;;;8.20;;
19089;SDS011;9677;50.656;13.064;2023-09-30T12:20:08;9.23;;;8.30;;
19089;SDS011;9677;50.656;13.064;2023-09-30T12:22:37;10.20;;;8.93;;
19089;SDS011;9677;50.656;13.064;2023-09-30T12:25:22;8.77;;;7.90;;
19089;SDS011;9677;50.656;13.064;2023-09-30T12:27:53;9.37;;;8.37;;
19089;SDS011;9677;50.656;13.064;2023-09-30T12:30:35;9.20;;;8.30;;
19089;SDS011;9677;50.656;13.064;2023-09-30T12:33:04;9.53;;;8.43;;
19089;SDS011;9677;50.656;13.064;2023-09-30T12:35:33;9.23;;;8.33;;
19089;SDS011;9677;50.656;13.064;2023-09-30T12:38:02;9.77;;;8.77;;
19089;SDS011;9677;50.656;13.064;2023-09-30T12:40:30;8.77;;;7.90;;
19089;SDS011;9677;50.656;13.064;2023-09-30T12:43:01;13.10;;;8.30;;
19089;SDS011;9677;50.656;13.064;2023-09-30T12:45:32;9.27;;;8.37;;
19089;SDS011;9677;50.656;13.064;2023-09-30T12:48:01;9.43;;;8.50;;
19089;SDS011;9677;50.656;13.064;2023-09-30T12:50:29;8.90;;;8.10;;
19089;SDS011;9677;50.656;13.064;2023-09-30T12:52:58;9.10;;;8.20;;
19089;SDS011;9677;50.656;13.064;2023-09-30T12:55:26;9.07;;;8.17;;
19089;SDS011;9677;50.656;13.064;2023-09-30T12:57:55;8.87;;;8.07;;
19089;SDS011;9677;50.656;13.064;2023-09-30T13:00:25;9.13;;;8.23;;
19089;SDS011;9677;50.656;13.064;2023-09-30T13:02:57;9.37;;;8.10;;
19089;SDS011;9677;50.656;13.064;2023-09-30T13:05:25;9.20;;;8.30;;
19089;SDS011;9677;50.656;13.064;2023-09-30T13:07:55;8.90;;;8.10;;
19089;SDS011;9677;50.656;13.064;2023-09-30T13:10:24;9.50;;;8.50;;
19089;SDS011;9677;50.656;13.064;2023-09-30T13:12:53;9.27;;;8.37;;
19089;SDS011;9677;50.656;13.064;2023-09-30T13:15:27;8.90;;;8.00;;
19089;SDS011;9677;50.656;13.064;2023-09-30T13:18:22;9.00;;;8.20;;
19089;SDS011;9677;50.656;13.064;2023-09-30T13:20:52;12.33;;;8.30;;
19089;SDS011;9677;50.656;13.064;2023-09-30T13:23:21;9.90;;;8.40;;
19089;SDS011;9677;50.656;13.064;2023-09-30T13:25:50;8.90;;;8.00;;
19089;SDS011;9677;50.656;13.064;2023-09-30T13:28:19;9.60;;;8.60;;
19089;SDS011;9677;50.656;13.064;2023-09-30T13:30:49;9.27;;;8.37;;
19089;SDS011;9677;50.656;13.064;2023-09-30T13:33:19;9.50;;;8.50;;
19089;SDS011;9677;50.656;13.064;2023-09-30T13:36:00;8.70;;;7.87;;
19089;SDS011;9677;50.656;13.064;2023-09-30T13:38:29;9.20;;;8.30;;
19089;SDS011;9677;50.656;13.064;2023-09-30T13:40:57;8.97;;;8.10;;
19089;SDS011;9677;50.656;13.064;2023-09-30T13:43:30;8.97;;;8.13;;
19089;SDS011;9677;50.656;13.064;2023-09-30T13:46:03;8.97;;;8.13;;
19089;SDS011;9677;50.656;13.064;2023-09-30T13:48:33;9.07;;;8.13;;
19089;SDS011;9677;50.656;13.064;2023-09-30T13:51:05;8.90;;;8.10;;
19089;SDS011;9677;50.656;13.064;2023-09-30T13:53:35;9.17;;;8.17;;
19089;SDS011;9677;50.656;13.064;2023-09-30T13:56:03;9.93;;;8.40;;
19089;SDS011;9677;50.656;13.064;2023-09-30T13:58:34;8.90;;;8.10;;
19089;SDS011;9677;50.656;13.064;2023-09-30T14:01:03;8.80;;;8.00;;
19089;SDS011;9677;50.656;13.064;2023-09-30T14:03:35;9.17;;;8.30;;
19089;SDS011;9677;50.656;13.064;2023-09-30T14:06:08;8.80;;;8.00;;
19089;SDS011;9677;50.656;13.064;2023-09-30T14:08:47;10.87;;;8.37;;
19089;SDS011;9677;50.656;13.064;2023-09-30T14:11:17;9.47;;;8.20;;
19089;SDS011;9677;50.656;13.064;2023-09-30T14:14:06;9.67;;;8.20;;
19089;SDS011;9677;50.656;13.064;2023-09-30T14:16:37;10.57;;;8.70;;
19089;SDS011;9677;50.656;13.064;2023-09-30T14:19:06;9.07;;;8.20;;
19089;SDS011;9677;50.656;13.064;2023-09-30T14:21:34;8.80;;;8.00;;
19089;SDS011;9677;50.656;13.064;2023-09-30T14:24:03;8.53;;;7.73;;
19089;SDS011;9677;50.656;13.064;2023-09-30T14:26:32;8.60;;;7.80;;
19089;SDS011;9677;50.656;13.064;2023-09-30T14:29:04;10.13;;;8.67;;
19089;SDS011;9677;50.656;13.064;2023-09-30T14:31:36;8.87;;;8.00;;
19089;SDS011;9677;50.656;13.064;2023-09-30T14:34:05;9.50;;;8.00;;
19089;SDS011;9677;50.656;13.064;2023-09-30T14:36:35;8.90;;;8.00;;
19089;SDS011;9677;50.656;13.064;2023-09-30T14:39:03;8.63;;;7.83;;
19089;SDS011;9677;50.656;13.064;2023-09-30T14:41:40;9.40;;;8.30;;
19089;SDS011;9677;50.656;13.064;2023-09-30T14:44:09;9.07;;;8.10;;
19089;SDS011;9677;50.656;13.064;2023-09-30T14:46:40;9.13;;;8.20;;
19089;SDS011;9677;50.656;13.064;2023-09-30T14:49:11;9.00;;;8.10;;
19089;SDS011;9677;50.656;13.064;2023-09-30T14:51:40;9.20;;;8.20;;
19089;SDS011;9677;50.656;13.064;2023-09-30T14:54:08;9.20;;;8.30;;
19089;SDS011;9677;50.656;13.064;2023-09-30T14:56:36;8.97;;;8.03;;
19089;SDS011;9677;50.656;13.064;2023-09-30T14:59:05;11.13;;;8.50;;
19089;SDS011;9677;50.656;13.064;2023-09-30T15:01:33;9.07;;;8.23;;
19089;SDS011;9677;50.656;13.064;2023-09-30T15:04:03;8.77;;;7.97;;
19089;SDS011;9677;50.656;13.064;2023-09-30T15:06:35;9.37;;;8.07;;
19089;SDS011;9677;50.656;13.064;2023-09-30T15:09:04;10.70;;;9.37;;
19089;SDS011;9677;50.656;13.064;2023-09-30T15:11:35;12.87;;;11.07;;
19089;SDS011;9677;50.656;13.064;2023-09-30T15:14:04;11.07;;;9.23;;
19089;SDS011;9677;50.656;13.064;2023-09-30T15:16:32;10.07;;;9.07;;